Del Mar, California
Current Conditions -  °F | °C
As of 9:55 PM on Tuesday 27 Jan 2015 (Local Time) from KNKX Reporting Station
Few Clouds Few Clouds  
Wind Chill: 54°   Ceiling: Unl
Heat Index: 54°   Visibility: 10mi
Dew Point: 47°   Wind: 5mph
Humidity: 77%   Direction: 40°NE
Pressure: 30.16"   Gusts: NA
Location:  32.96°N, 117.27°W
Report Text: KNKX 280555Z 04004KT 10SM FEW200 12/08 A3016 RMK AO2 SLP211 T01220083 10189 20117 58001
Loading
Personal Weather Stations






























Interactive Weather Map New forecast layout! Learn more

10-Day Weather Forecast

Advertisements
Track Severe Weather on mobile